»·PEaware :: N9045B KOAK-KPAO

N9045B :: KOAK-KPAO

FLIGHT INFORMATION

Flight Status: Arrived
Operator: Privately registered:
United States
More flights under this callsign
Pilot: Dirk K. (16521)
Aircraft: CESSNA 172 SKYHAWK
(C172)
More flights by this aircraft type
Origin: KOAK Metro Oakland Intl
United States
Destination: KPAO Palo Alto Of Santa Clara Co
United States
More flights between these airports :: More routes between these airports
Route: +SUNOL SJC
File this flight plan on PilotEdge
Remarks:
Altitude:
(Current/Filed)
3,000ft
Speed:
(Current/Filed)
100kts
Departed: 13-Jan-18 11:42 AM
Arrived: 13-Jan-18 12:13 PM
Distance/Time
Traveled:
17nm/0:31
Distance/Time
To Go:
Arrived

Flight Plot

Page will automatically refresh every two minutes.

Flight plan parsing failed; only flown route is shown


Map Options




Map Legend


Flown Route
Filed Route
Departure Airport
Arrival Airport
Navaid (VOR, NDB)
Fix

Horizontal Profiles

Position Reports

Time Latitude Longitude Heading Altitude Ground
Speed
13-Jan-18 11:04 37.728715 -122.211112 203 12ft 0kts
13-Jan-18 11:05 37.728715 -122.211112 203 12ft 0kts
13-Jan-18 11:06 37.728715 -122.211112 203 12ft 0kts
13-Jan-18 11:07 37.728715 -122.211112 203 12ft 0kts
13-Jan-18 11:08 37.728715 -122.211112 203 12ft 0kts
13-Jan-18 11:09 37.728715 -122.211112 203 12ft 0kts
13-Jan-18 11:10 37.728715 -122.211112 203 12ft 0kts
13-Jan-18 11:11 37.728715 -122.211112 203 12ft 0kts
13-Jan-18 11:12 37.728715 -122.211112 203 12ft 0kts
13-Jan-18 11:13 37.728715 -122.211112 203 12ft 0kts
13-Jan-18 11:14 37.728715 -122.211112 203 12ft 0kts
13-Jan-18 11:15 37.728715 -122.211112 203 12ft 0kts
13-Jan-18 11:16 37.728715 -122.211112 203 12ft 0kts
13-Jan-18 11:17 37.728715 -122.211112 203 12ft 0kts
13-Jan-18 11:18 37.728715 -122.211112 203 12ft 0kts
13-Jan-18 11:19 37.728395 -122.212426 291 12ft 18kts
13-Jan-18 11:20 37.729538 -122.215980 292 12ft 8kts
13-Jan-18 11:21 37.730425 -122.218751 287 12ft 0kts
13-Jan-18 11:22 37.731152 -122.221628 216 12ft 0kts
13-Jan-18 11:23 37.731152 -122.221628 216 12ft 0kts
13-Jan-18 11:24 37.731152 -122.221628 216 12ft 0kts
13-Jan-18 11:25 37.731152 -122.221628 216 12ft 0kts
13-Jan-18 11:26 37.731152 -122.221628 216 12ft 0kts
13-Jan-18 11:27 37.731152 -122.221628 216 12ft 0kts
13-Jan-18 11:28 37.731152 -122.221628 216 12ft 0kts
13-Jan-18 11:29 37.731152 -122.221628 216 12ft 0kts
13-Jan-18 11:30 37.731152 -122.221628 216 12ft 0kts
13-Jan-18 11:31 37.731138 -122.221242 92 12ft 9kts
13-Jan-18 11:32 37.730846 -122.220350 91 12ft 7kts
13-Jan-18 11:33 37.729298 -122.215342 112 12ft 17kts
13-Jan-18 11:34 37.728080 -122.211568 113 12ft 16kts
13-Jan-18 11:35 37.726172 -122.205786 121 12ft 10kts
13-Jan-18 11:36 37.725746 -122.204932 121 12ft 0kts
13-Jan-18 11:37 37.725746 -122.204932 121 12ft 0kts
13-Jan-18 11:38 37.725746 -122.204932 121 12ft 0kts
13-Jan-18 11:39 37.725746 -122.204932 121 12ft 0kts
13-Jan-18 11:40 37.725746 -122.204932 121 12ft 0kts
13-Jan-18 11:41 37.725746 -122.204932 121 12ft 0kts
13-Jan-18 11:42 37.725746 -122.204932 121 12ft 0kts
13-Jan-18 11:43 37.725746 -122.204932 121 12ft 0kts
13-Jan-18 11:44 37.725746 -122.204932 121 12ft 0kts
13-Jan-18 11:45 37.725746 -122.204932 121 12ft 0kts
13-Jan-18 11:46 37.725746 -122.204932 121 12ft 0kts
13-Jan-18 11:47 37.725449 -122.204658 167 12ft 11kts
13-Jan-18 11:48 37.729598 -122.221953 280 555ft 76kts
13-Jan-18 11:49 37.747173 -122.239762 323 1688ft 73kts
13-Jan-18 11:50 37.766733 -122.260925 320 2564ft 93kts
13-Jan-18 11:51 37.787074 -122.282262 312 3256ft 120kts
13-Jan-18 11:52 37.806674 -122.282304 113 3002ft 94kts
13-Jan-18 11:53 37.794638 -122.251406 115 3072ft 107kts
13-Jan-18 11:54 37.779486 -122.215006 117 2968ft 124kts
13-Jan-18 11:55 37.763272 -122.177565 116 3053ft 117kts
13-Jan-18 11:56 37.748710 -122.140825 115 3017ft 123kts
13-Jan-18 11:57 37.731349 -122.103464 129 2824ft 123kts
13-Jan-18 11:58 37.716640 -122.068737 114 2761ft 136kts
13-Jan-18 11:59 37.702873 -122.033751 114 3163ft 113kts
13-Jan-18 12:00 37.688559 -121.996642 108 3134ft 118kts
13-Jan-18 12:01 37.675116 -121.966477 121 3158ft 116kts
13-Jan-18 12:02 37.654305 -121.924399 118 2797ft 132kts
13-Jan-18 12:03 37.640877 -121.895330 115 3105ft 120kts
13-Jan-18 12:04 37.619572 -121.853784 114 3141ft 116kts
13-Jan-18 12:05 37.600207 -121.823561 200 2920ft 138kts
13-Jan-18 12:06 37.574849 -121.842378 186 3220ft 132kts
13-Jan-18 12:07 37.533586 -121.858212 195 3312ft 114kts
13-Jan-18 12:08 37.506661 -121.865669 197 3418ft 134kts
13-Jan-18 12:09 37.480049 -121.884361 209 4273ft 106kts
13-Jan-18 12:10 37.445701 -121.893573 193 3867ft 139kts
13-Jan-18 12:11 37.412832 -121.906720 208 3495ft 120kts
13-Jan-18 12:12 37.386917 -121.928692 223 2960ft 105kts
13-Jan-18 12:13 37.376499 -121.953540 303 2895ft 89kts
13-Jan-18 12:14 37.393372 -121.980331 302 2497ft 106kts
13-Jan-18 12:15 37.408520 -122.009398 307 2257ft 97kts
13-Jan-18 12:16 37.426369 -122.039064 317 1730ft 94kts
13-Jan-18 12:17 37.438827 -122.067012 294 1530ft 95kts
13-Jan-18 12:18 37.449272 -122.100162 286 945ft 94kts
13-Jan-18 12:19 37.462736 -122.116801 354 6ft 28kts
13-Jan-18 12:20 37.460402 -122.114977 142 6ft 20kts
13-Jan-18 12:21 37.456788 -122.113903 182 6ft 8kts

Navigation Log

Ident Type
Flight plan parsing failed, navigation log unavailable